sensor_id;sensor_type;location;lat;lon;timestamp;P1;P2;P0
31330;PMS5003;34067;39.548;-76.088;2022-08-01T00:00:38;16;15;
31330;PMS5003;34067;39.548;-76.088;2022-08-01T00:03:06;16;16;
31330;PMS5003;34067;39.548;-76.088;2022-08-01T00:05:34;16;16;
31330;PMS5003;34067;39.548;-76.088;2022-08-01T00:08:02;16;16;
31330;PMS5003;34067;39.548;-76.088;2022-08-01T00:10:30;16;16;
31330;PMS5003;34067;39.548;-76.088;2022-08-01T00:12:58;18;17;
31330;PMS5003;34067;39.548;-76.088;2022-08-01T00:15:26;17;17;
31330;PMS5003;34067;39.548;-76.088;2022-08-01T00:17:55;16;15;
31330;PMS5003;34067;39.548;-76.088;2022-08-01T00:20:23;16;16;
31330;PMS5003;34067;39.548;-76.088;2022-08-01T00:22:50;15;14;
31330;PMS5003;34067;39.548;-76.088;2022-08-01T00:25:18;14;14;
31330;PMS5003;34067;39.548;-76.088;2022-08-01T00:27:46;17;16;
31330;PMS5003;34067;39.548;-76.088;2022-08-01T00:30:14;16;15;
31330;PMS5003;34067;39.548;-76.088;2022-08-01T00:32:42;14;14;
31330;PMS5003;34067;39.548;-76.088;2022-08-01T00:35:10;16;16;
31330;PMS5003;34067;39.548;-76.088;2022-08-01T00:37:38;16;16;
31330;PMS5003;34067;39.548;-76.088;2022-08-01T00:40:06;19;18;
31330;PMS5003;34067;39.548;-76.088;2022-08-01T00:42:34;15;15;
31330;PMS5003;34067;39.548;-76.088;2022-08-01T00:45:02;16;15;
31330;PMS5003;34067;39.548;-76.088;2022-08-01T00:47:31;17;17;
31330;PMS5003;34067;39.548;-76.088;2022-08-01T00:49:58;17;16;
31330;PMS5003;34067;39.548;-76.088;2022-08-01T00:52:26;15;14;
31330;PMS5003;34067;39.548;-76.088;2022-08-01T00:54:54;15;15;
31330;PMS5003;34067;39.548;-76.088;2022-08-01T00:57:21;16;16;
31330;PMS5003;34067;39.548;-76.088;2022-08-01T00:59:49;17;17;
31330;PMS5003;34067;39.548;-76.088;2022-08-01T01:02:19;18;18;
31330;PMS5003;34067;39.548;-76.088;2022-08-01T01:04:46;20;20;
31330;PMS5003;34067;39.548;-76.088;2022-08-01T01:07:16;19;19;
31330;PMS5003;34067;39.548;-76.088;2022-08-01T01:09:50;23;23;
31330;PMS5003;34067;39.548;-76.088;2022-08-01T01:12:27;22;22;
31330;PMS5003;34067;39.548;-76.088;2022-08-01T01:15:02;17;17;
31330;PMS5003;34067;39.548;-76.088;2022-08-01T01:17:37;23;23;
31330;PMS5003;34067;39.548;-76.088;2022-08-01T01:20:11;21;21;
31330;PMS5003;34067;39.548;-76.088;2022-08-01T01:22:46;25;24;
31330;PMS5003;34067;39.548;-76.088;2022-08-01T01:25:29;17;17;
31330;PMS5003;34067;39.548;-76.088;2022-08-01T01:28:15;23;23;
31330;PMS5003;34067;39.548;-76.088;2022-08-01T01:30:55;20;20;
31330;PMS5003;34067;39.548;-76.088;2022-08-01T01:33:27;21;21;
31330;PMS5003;34067;39.548;-76.088;2022-08-01T01:35:57;22;21;
31330;PMS5003;34067;39.548;-76.088;2022-08-01T01:38:32;22;22;
31330;PMS5003;34067;39.548;-76.088;2022-08-01T01:41:03;19;18;
31330;PMS5003;34067;39.548;-76.088;2022-08-01T01:43:33;19;19;
31330;PMS5003;34067;39.548;-76.088;2022-08-01T01:46:03;21;20;
31330;PMS5003;34067;39.548;-76.088;2022-08-01T01:48:33;21;20;
31330;PMS5003;34067;39.548;-76.088;2022-08-01T01:51:02;19;19;
31330;PMS5003;34067;39.548;-76.088;2022-08-01T01:53:33;22;21;
31330;PMS5003;34067;39.548;-76.088;2022-08-01T01:56:03;19;18;
31330;PMS5003;34067;39.548;-76.088;2022-08-01T01:58:31;18;17;
31330;PMS5003;34067;39.548;-76.088;2022-08-01T02:01:01;22;22;
31330;PMS5003;34067;39.548;-76.088;2022-08-01T02:03:29;23;23;
31330;PMS5003;34067;39.548;-76.088;2022-08-01T02:05:58;19;19;
31330;PMS5003;34067;39.548;-76.088;2022-08-01T02:08:27;19;19;
31330;PMS5003;34067;39.548;-76.088;2022-08-01T02:10:57;18;18;
31330;PMS5003;34067;39.548;-76.088;2022-08-01T02:13:26;22;21;
31330;PMS5003;34067;39.548;-76.088;2022-08-01T02:15:55;21;21;
31330;PMS5003;34067;39.548;-76.088;2022-08-01T02:18:23;22;22;
31330;PMS5003;34067;39.548;-76.088;2022-08-01T02:20:51;26;26;
31330;PMS5003;34067;39.548;-76.088;2022-08-01T02:23:20;27;26;
31330;PMS5003;34067;39.548;-76.088;2022-08-01T02:25:51;29;29;
31330;PMS5003;34067;39.548;-76.088;2022-08-01T02:28:23;28;28;
31330;PMS5003;34067;39.548;-76.088;2022-08-01T02:30:57;31;31;
31330;PMS5003;34067;39.548;-76.088;2022-08-01T02:33:33;25;25;
31330;PMS5003;34067;39.548;-76.088;2022-08-01T02:36:05;20;19;
31330;PMS5003;34067;39.548;-76.088;2022-08-01T02:38:35;19;19;
31330;PMS5003;34067;39.548;-76.088;2022-08-01T02:41:07;20;19;
31330;PMS5003;34067;39.548;-76.088;2022-08-01T02:43:37;20;19;
31330;PMS5003;34067;39.548;-76.088;2022-08-01T02:46:11;21;19;
31330;PMS5003;34067;39.548;-76.088;2022-08-01T02:48:44;21;21;
31330;PMS5003;34067;39.548;-76.088;2022-08-01T02:51:14;19;19;
31330;PMS5003;34067;39.548;-76.088;2022-08-01T02:53:44;20;19;
31330;PMS5003;34067;39.548;-76.088;2022-08-01T02:56:13;23;22;
31330;PMS5003;34067;39.548;-76.088;2022-08-01T02:58:44;19;19;
31330;PMS5003;34067;39.548;-76.088;2022-08-01T03:01:14;20;20;
31330;PMS5003;34067;39.548;-76.088;2022-08-01T03:03:43;19;19;
31330;PMS5003;34067;39.548;-76.088;2022-08-01T03:06:12;20;19;
31330;PMS5003;34067;39.548;-76.088;2022-08-01T03:08:42;21;20;
31330;PMS5003;34067;39.548;-76.088;2022-08-01T03:11:11;21;20;
31330;PMS5003;34067;39.548;-76.088;2022-08-01T03:13:40;17;17;
31330;PMS5003;34067;39.548;-76.088;2022-08-01T03:16:11;26;25;
31330;PMS5003;34067;39.548;-76.088;2022-08-01T03:18:39;24;24;
31330;PMS5003;34067;39.548;-76.088;2022-08-01T03:21:11;24;23;
31330;PMS5003;34067;39.548;-76.088;2022-08-01T03:23:41;22;21;
31330;PMS5003;34067;39.548;-76.088;2022-08-01T03:26:12;21;19;
31330;PMS5003;34067;39.548;-76.088;2022-08-01T03:28:40;21;21;
31330;PMS5003;34067;39.548;-76.088;2022-08-01T03:31:12;20;18;
31330;PMS5003;34067;39.548;-76.088;2022-08-01T03:33:41;17;16;
31330;PMS5003;34067;39.548;-76.088;2022-08-01T03:36:09;21;21;
31330;PMS5003;34067;39.548;-76.088;2022-08-01T03:38:39;18;18;
31330;PMS5003;34067;39.548;-76.088;2022-08-01T03:41:09;17;16;
31330;PMS5003;34067;39.548;-76.088;2022-08-01T03:43:45;19;18;
31330;PMS5003;34067;39.548;-76.088;2022-08-01T03:46:20;18;18;
31330;PMS5003;34067;39.548;-76.088;2022-08-01T03:48:54;18;18;
31330;PMS5003;34067;39.548;-76.088;2022-08-01T03:51:25;16;16;
31330;PMS5003;34067;39.548;-76.088;2022-08-01T03:53:54;17;17;
31330;PMS5003;34067;39.548;-76.088;2022-08-01T03:56:23;18;18;
31330;PMS5003;34067;39.548;-76.088;2022-08-01T03:58:52;17;17;
31330;PMS5003;34067;39.548;-76.088;2022-08-01T04:01:20;14;14;
31330;PMS5003;34067;39.548;-76.088;2022-08-01T04:03:48;17;17;
31330;PMS5003;34067;39.548;-76.088;2022-08-01T04:06:16;15;15;
31330;PMS5003;34067;39.548;-76.088;2022-08-01T04:08:44;16;16;
31330;PMS5003;34067;39.548;-76.088;2022-08-01T04:11:13;17;16;
31330;PMS5003;34067;39.548;-76.088;2022-08-01T04:13:41;12;11;
31330;PMS5003;34067;39.548;-76.088;2022-08-01T04:16:08;17;15;
31330;PMS5003;34067;39.548;-76.088;2022-08-01T04:18:36;14;14;
31330;PMS5003;34067;39.548;-76.088;2022-08-01T04:21:04;15;15;
31330;PMS5003;34067;39.548;-76.088;2022-08-01T04:23:32;13;13;
31330;PMS5003;34067;39.548;-76.088;2022-08-01T04:26:02;13;12;
31330;PMS5003;34067;39.548;-76.088;2022-08-01T04:28:31;15;15;
31330;PMS5003;34067;39.548;-76.088;2022-08-01T04:31:03;15;14;
31330;PMS5003;34067;39.548;-76.088;2022-08-01T04:33:35;14;14;
31330;PMS5003;34067;39.548;-76.088;2022-08-01T04:36:04;14;14;
31330;PMS5003;34067;39.548;-76.088;2022-08-01T04:38:36;17;17;
31330;PMS5003;34067;39.548;-76.088;2022-08-01T04:41:06;15;14;
31330;PMS5003;34067;39.548;-76.088;2022-08-01T04:43:37;15;15;
31330;PMS5003;34067;39.548;-76.088;2022-08-01T04:46:05;20;20;
31330;PMS5003;34067;39.548;-76.088;2022-08-01T04:48:34;16;16;
31330;PMS5003;34067;39.548;-76.088;2022-08-01T04:51:11;18;18;
31330;PMS5003;34067;39.548;-76.088;2022-08-01T04:53:39;16;16;
31330;PMS5003;34067;39.548;-76.088;2022-08-01T04:56:08;15;15;
31330;PMS5003;34067;39.548;-76.088;2022-08-01T04:58:36;19;17;
31330;PMS5003;34067;39.548;-76.088;2022-08-01T05:03:09;20;20;
31330;PMS5003;34067;39.548;-76.088;2022-08-01T05:05:37;23;22;
31330;PMS5003;34067;39.548;-76.088;2022-08-01T05:08:05;19;18;
31330;PMS5003;34067;39.548;-76.088;2022-08-01T05:10:33;17;17;
31330;PMS5003;34067;39.548;-76.088;2022-08-01T05:13:01;18;18;
31330;PMS5003;34067;39.548;-76.088;2022-08-01T05:15:28;18;18;
31330;PMS5003;34067;39.548;-76.088;2022-08-01T05:17:56;18;18;
31330;PMS5003;34067;39.548;-76.088;2022-08-01T05:20:24;16;16;
31330;PMS5003;34067;39.548;-76.088;2022-08-01T05:22:52;18;18;
31330;PMS5003;34067;39.548;-76.088;2022-08-01T05:25:20;17;16;
31330;PMS5003;34067;39.548;-76.088;2022-08-01T05:27:47;23;22;
31330;PMS5003;34067;39.548;-76.088;2022-08-01T05:30:16;16;16;
31330;PMS5003;34067;39.548;-76.088;2022-08-01T05:32:44;18;18;
31330;PMS5003;34067;39.548;-76.088;2022-08-01T05:35:12;21;21;
31330;PMS5003;34067;39.548;-76.088;2022-08-01T05:37:40;20;20;
31330;PMS5003;34067;39.548;-76.088;2022-08-01T05:40:08;18;18;
31330;PMS5003;34067;39.548;-76.088;2022-08-01T05:42:36;20;20;
31330;PMS5003;34067;39.548;-76.088;2022-08-01T05:45:04;20;19;
31330;PMS5003;34067;39.548;-76.088;2022-08-01T05:47:32;17;17;
31330;PMS5003;34067;39.548;-76.088;2022-08-01T05:50:01;16;16;
31330;PMS5003;34067;39.548;-76.088;2022-08-01T05:52:29;17;17;
31330;PMS5003;34067;39.548;-76.088;2022-08-01T05:54:57;20;20;
31330;PMS5003;34067;39.548;-76.088;2022-08-01T05:57:25;17;17;
31330;PMS5003;34067;39.548;-76.088;2022-08-01T05:59:53;17;17;
31330;PMS5003;34067;39.548;-76.088;2022-08-01T06:02:21;17;17;
31330;PMS5003;34067;39.548;-76.088;2022-08-01T06:04:49;18;18;
31330;PMS5003;34067;39.548;-76.088;2022-08-01T06:07:16;16;16;
31330;PMS5003;34067;39.548;-76.088;2022-08-01T06:09:44;16;15;
31330;PMS5003;34067;39.548;-76.088;2022-08-01T06:12:12;17;17;
31330;PMS5003;34067;39.548;-76.088;2022-08-01T06:14:40;20;19;
31330;PMS5003;34067;39.548;-76.088;2022-08-01T06:17:08;16;16;
31330;PMS5003;34067;39.548;-76.088;2022-08-01T06:19:36;18;18;
31330;PMS5003;34067;39.548;-76.088;2022-08-01T06:22:04;18;17;
31330;PMS5003;34067;39.548;-76.088;2022-08-01T06:24:32;18;18;
31330;PMS5003;34067;39.548;-76.088;2022-08-01T06:27:00;18;18;
31330;PMS5003;34067;39.548;-76.088;2022-08-01T06:29:29;17;17;
31330;PMS5003;34067;39.548;-76.088;2022-08-01T06:31:58;18;17;
31330;PMS5003;34067;39.548;-76.088;2022-08-01T06:34:26;15;15;
31330;PMS5003;34067;39.548;-76.088;2022-08-01T06:36:54;15;15;
31330;PMS5003;34067;39.548;-76.088;2022-08-01T06:39:22;16;15;
31330;PMS5003;34067;39.548;-76.088;2022-08-01T06:41:50;17;16;
31330;PMS5003;34067;39.548;-76.088;2022-08-01T06:44:18;14;14;
31330;PMS5003;34067;39.548;-76.088;2022-08-01T06:46:46;14;14;
31330;PMS5003;34067;39.548;-76.088;2022-08-01T06:49:14;16;14;
31330;PMS5003;34067;39.548;-76.088;2022-08-01T06:51:41;15;15;
31330;PMS5003;34067;39.548;-76.088;2022-08-01T06:54:09;17;16;
31330;PMS5003;34067;39.548;-76.088;2022-08-01T06:56:37;16;15;
31330;PMS5003;34067;39.548;-76.088;2022-08-01T06:59:05;17;17;
31330;PMS5003;34067;39.548;-76.088;2022-08-01T07:01:33;20;19;
31330;PMS5003;34067;39.548;-76.088;2022-08-01T07:04:01;15;14;
31330;PMS5003;34067;39.548;-76.088;2022-08-01T07:06:28;16;16;
31330;PMS5003;34067;39.548;-76.088;2022-08-01T07:08:56;15;15;
31330;PMS5003;34067;39.548;-76.088;2022-08-01T07:11:24;16;15;
31330;PMS5003;34067;39.548;-76.088;2022-08-01T07:13:52;16;16;
31330;PMS5003;34067;39.548;-76.088;2022-08-01T07:16:21;15;14;
31330;PMS5003;34067;39.548;-76.088;2022-08-01T07:18:49;16;16;
31330;PMS5003;34067;39.548;-76.088;2022-08-01T07:21:17;18;18;
31330;PMS5003;34067;39.548;-76.088;2022-08-01T07:23:45;16;16;
31330;PMS5003;34067;39.548;-76.088;2022-08-01T07:26:13;15;15;
31330;PMS5003;34067;39.548;-76.088;2022-08-01T07:28:40;14;14;
31330;PMS5003;34067;39.548;-76.088;2022-08-01T07:31:09;17;16;
31330;PMS5003;34067;39.548;-76.088;2022-08-01T07:33:37;20;19;
31330;PMS5003;34067;39.548;-76.088;2022-08-01T07:36:04;16;16;
31330;PMS5003;34067;39.548;-76.088;2022-08-01T07:38:32;20;19;
31330;PMS5003;34067;39.548;-76.088;2022-08-01T07:41:00;16;16;
31330;PMS5003;34067;39.548;-76.088;2022-08-01T07:43:28;20;19;
31330;PMS5003;34067;39.548;-76.088;2022-08-01T07:45:56;17;17;
31330;PMS5003;34067;39.548;-76.088;2022-08-01T07:48:24;17;17;
31330;PMS5003;34067;39.548;-76.088;2022-08-01T07:50:52;16;16;
31330;PMS5003;34067;39.548;-76.088;2022-08-01T07:53:19;18;17;
31330;PMS5003;34067;39.548;-76.088;2022-08-01T07:55:47;18;17;
31330;PMS5003;34067;39.548;-76.088;2022-08-01T07:58:17;17;16;
31330;PMS5003;34067;39.548;-76.088;2022-08-01T08:00:45;15;15;
31330;PMS5003;34067;39.548;-76.088;2022-08-01T08:03:13;19;19;
31330;PMS5003;34067;39.548;-76.088;2022-08-01T08:05:41;17;16;
31330;PMS5003;34067;39.548;-76.088;2022-08-01T08:08:09;14;14;
31330;PMS5003;34067;39.548;-76.088;2022-08-01T08:10:37;18;16;
31330;PMS5003;34067;39.548;-76.088;2022-08-01T08:13:04;15;15;
31330;PMS5003;34067;39.548;-76.088;2022-08-01T08:15:33;16;15;
31330;PMS5003;34067;39.548;-76.088;2022-08-01T08:18:00;15;15;
31330;PMS5003;34067;39.548;-76.088;2022-08-01T08:20:30;14;14;
31330;PMS5003;34067;39.548;-76.088;2022-08-01T08:22:58;14;14;
31330;PMS5003;34067;39.548;-76.088;2022-08-01T08:25:26;16;16;
31330;PMS5003;34067;39.548;-76.088;2022-08-01T08:27:54;16;16;
31330;PMS5003;34067;39.548;-76.088;2022-08-01T08:30:22;17;16;
31330;PMS5003;34067;39.548;-76.088;2022-08-01T08:32:50;14;14;
31330;PMS5003;34067;39.548;-76.088;2022-08-01T08:35:18;22;21;
31330;PMS5003;34067;39.548;-76.088;2022-08-01T08:37:46;16;16;
31330;PMS5003;34067;39.548;-76.088;2022-08-01T08:40:14;16;15;
31330;PMS5003;34067;39.548;-76.088;2022-08-01T08:42:43;19;18;
31330;PMS5003;34067;39.548;-76.088;2022-08-01T08:45:12;16;15;
31330;PMS5003;34067;39.548;-76.088;2022-08-01T08:47:40;15;15;
31330;PMS5003;34067;39.548;-76.088;2022-08-01T08:50:10;15;15;
31330;PMS5003;34067;39.548;-76.088;2022-08-01T08:52:38;18;18;
31330;PMS5003;34067;39.548;-76.088;2022-08-01T08:55:08;17;17;
31330;PMS5003;34067;39.548;-76.088;2022-08-01T08:57:39;28;27;
31330;PMS5003;34067;39.548;-76.088;2022-08-01T09:00:11;15;14;
31330;PMS5003;34067;39.548;-76.088;2022-08-01T09:02:41;15;15;
31330;PMS5003;34067;39.548;-76.088;2022-08-01T09:05:09;16;15;
31330;PMS5003;34067;39.548;-76.088;2022-08-01T09:07:38;15;14;
31330;PMS5003;34067;39.548;-76.088;2022-08-01T09:10:07;16;16;
31330;PMS5003;34067;39.548;-76.088;2022-08-01T09:12:36;16;14;
31330;PMS5003;34067;39.548;-76.088;2022-08-01T09:15:05;17;17;
31330;PMS5003;34067;39.548;-76.088;2022-08-01T09:17:40;18;18;
31330;PMS5003;34067;39.548;-76.088;2022-08-01T09:20:08;16;15;
31330;PMS5003;34067;39.548;-76.088;2022-08-01T09:22:50;19;17;
31330;PMS5003;34067;39.548;-76.088;2022-08-01T09:25:18;18;18;
31330;PMS5003;34067;39.548;-76.088;2022-08-01T09:27:46;18;18;
31330;PMS5003;34067;39.548;-76.088;2022-08-01T09:30:15;18;18;
31330;PMS5003;34067;39.548;-76.088;2022-08-01T09:32:52;17;17;
31330;PMS5003;34067;39.548;-76.088;2022-08-01T09:35:23;24;20;
31330;PMS5003;34067;39.548;-76.088;2022-08-01T09:37:56;17;17;
31330;PMS5003;34067;39.548;-76.088;2022-08-01T09:40:45;21;19;
31330;PMS5003;34067;39.548;-76.088;2022-08-01T09:43:13;16;16;
31330;PMS5003;34067;39.548;-76.088;2022-08-01T09:45:41;15;15;
31330;PMS5003;34067;39.548;-76.088;2022-08-01T09:48:09;17;16;
31330;PMS5003;34067;39.548;-76.088;2022-08-01T09:50:39;16;16;
31330;PMS5003;34067;39.548;-76.088;2022-08-01T09:53:08;17;16;
31330;PMS5003;34067;39.548;-76.088;2022-08-01T09:55:35;16;15;
31330;PMS5003;34067;39.548;-76.088;2022-08-01T09:58:04;17;17;
31330;PMS5003;34067;39.548;-76.088;2022-08-01T10:00:33;14;14;
31330;PMS5003;34067;39.548;-76.088;2022-08-01T10:03:17;16;16;
31330;PMS5003;34067;39.548;-76.088;2022-08-01T10:05:46;14;14;
31330;PMS5003;34067;39.548;-76.088;2022-08-01T10:08:15;17;16;
31330;PMS5003;34067;39.548;-76.088;2022-08-01T10:10:43;15;15;
31330;PMS5003;34067;39.548;-76.088;2022-08-01T10:13:33;15;15;
31330;PMS5003;34067;39.548;-76.088;2022-08-01T10:16:01;14;14;
31330;PMS5003;34067;39.548;-76.088;2022-08-01T10:18:33;16;15;
31330;PMS5003;34067;39.548;-76.088;2022-08-01T10:21:02;16;16;
31330;PMS5003;34067;39.548;-76.088;2022-08-01T10:23:33;17;17;
31330;PMS5003;34067;39.548;-76.088;2022-08-01T10:26:02;15;15;
31330;PMS5003;34067;39.548;-76.088;2022-08-01T10:28:34;15;15;
31330;PMS5003;34067;39.548;-76.088;2022-08-01T10:31:03;15;15;
31330;PMS5003;34067;39.548;-76.088;2022-08-01T10:33:33;16;15;
31330;PMS5003;34067;39.548;-76.088;2022-08-01T10:36:01;15;15;
31330;PMS5003;34067;39.548;-76.088;2022-08-01T10:38:30;18;18;
31330;PMS5003;34067;39.548;-76.088;2022-08-01T10:40:59;22;22;
31330;PMS5003;34067;39.548;-76.088;2022-08-01T10:43:29;16;16;
31330;PMS5003;34067;39.548;-76.088;2022-08-01T10:45:57;18;18;
31330;PMS5003;34067;39.548;-76.088;2022-08-01T10:48:28;16;16;
31330;PMS5003;34067;39.548;-76.088;2022-08-01T10:51:02;15;15;
31330;PMS5003;34067;39.548;-76.088;2022-08-01T10:53:32;17;15;
31330;PMS5003;34067;39.548;-76.088;2022-08-01T10:56:01;19;17;
31330;PMS5003;34067;39.548;-76.088;2022-08-01T10:58:31;17;17;
31330;PMS5003;34067;39.548;-76.088;2022-08-01T11:01:17;17;17;
31330;PMS5003;34067;39.548;-76.088;2022-08-01T11:04:04;21;20;
31330;PMS5003;34067;39.548;-76.088;2022-08-01T11:06:38;19;19;
31330;PMS5003;34067;39.548;-76.088;2022-08-01T11:09:18;19;19;
31330;PMS5003;34067;39.548;-76.088;2022-08-01T11:11:58;18;18;
31330;PMS5003;34067;39.548;-76.088;2022-08-01T11:14:28;18;18;
31330;PMS5003;34067;39.548;-76.088;2022-08-01T11:16:57;21;20;
31330;PMS5003;34067;39.548;-76.088;2022-08-01T11:20:06;20;20;
31330;PMS5003;34067;39.548;-76.088;2022-08-01T11:23:20;16;16;
31330;PMS5003;34067;39.548;-76.088;2022-08-01T11:26:21;23;22;
31330;PMS5003;34067;39.548;-76.088;2022-08-01T11:29:21;17;16;
31330;PMS5003;34067;39.548;-76.088;2022-08-01T11:31:49;22;22;
31330;PMS5003;34067;39.548;-76.088;2022-08-01T11:34:17;23;23;
31330;PMS5003;34067;39.548;-76.088;2022-08-01T11:36:45;21;21;
31330;PMS5003;34067;39.548;-76.088;2022-08-01T11:39:14;26;24;
31330;PMS5003;34067;39.548;-76.088;2022-08-01T11:41:46;19;18;
31330;PMS5003;34067;39.548;-76.088;2022-08-01T11:44:19;17;17;
31330;PMS5003;34067;39.548;-76.088;2022-08-01T11:46:50;20;20;
31330;PMS5003;34067;39.548;-76.088;2022-08-01T11:49:22;22;19;
31330;PMS5003;34067;39.548;-76.088;2022-08-01T11:51:57;19;18;
31330;PMS5003;34067;39.548;-76.088;2022-08-01T11:54:28;21;19;
31330;PMS5003;34067;39.548;-76.088;2022-08-01T11:56:57;27;26;
31330;PMS5003;34067;39.548;-76.088;2022-08-01T11:59:27;21;21;
31330;PMS5003;34067;39.548;-76.088;2022-08-01T12:01:55;29;28;
31330;PMS5003;34067;39.548;-76.088;2022-08-01T12:04:23;23;23;
31330;PMS5003;34067;39.548;-76.088;2022-08-01T12:06:51;21;19;
31330;PMS5003;34067;39.548;-76.088;2022-08-01T12:09:19;21;20;
31330;PMS5003;34067;39.548;-76.088;2022-08-01T12:11:48;20;19;
31330;PMS5003;34067;39.548;-76.088;2022-08-01T12:14:17;20;20;
31330;PMS5003;34067;39.548;-76.088;2022-08-01T12:16:49;23;21;
31330;PMS5003;34067;39.548;-76.088;2022-08-01T12:19:20;20;19;
31330;PMS5003;34067;39.548;-76.088;2022-08-01T12:22:22;17;17;
31330;PMS5003;34067;39.548;-76.088;2022-08-01T12:24:50;20;18;
31330;PMS5003;34067;39.548;-76.088;2022-08-01T12:27:27;21;20;
31330;PMS5003;34067;39.548;-76.088;2022-08-01T12:29:57;21;21;
31330;PMS5003;34067;39.548;-76.088;2022-08-01T12:32:27;24;24;
31330;PMS5003;34067;39.548;-76.088;2022-08-01T12:34:57;18;18;
31330;PMS5003;34067;39.548;-76.088;2022-08-01T12:37:28;22;20;
31330;PMS5003;34067;39.548;-76.088;2022-08-01T12:39:57;20;19;
31330;PMS5003;34067;39.548;-76.088;2022-08-01T12:42:26;22;22;
31330;PMS5003;34067;39.548;-76.088;2022-08-01T12:44:54;23;22;
31330;PMS5003;34067;39.548;-76.088;2022-08-01T12:47:22;21;21;
31330;PMS5003;34067;39.548;-76.088;2022-08-01T12:49:51;21;20;
31330;PMS5003;34067;39.548;-76.088;2022-08-01T12:52:19;22;21;
31330;PMS5003;34067;39.548;-76.088;2022-08-01T12:55:06;24;24;
31330;PMS5003;34067;39.548;-76.088;2022-08-01T12:57:38;20;17;
31330;PMS5003;34067;39.548;-76.088;2022-08-01T13:00:08;29;28;
31330;PMS5003;34067;39.548;-76.088;2022-08-01T13:02:39;23;23;
31330;PMS5003;34067;39.548;-76.088;2022-08-01T13:05:09;20;20;
31330;PMS5003;34067;39.548;-76.088;2022-08-01T13:07:42;23;22;
31330;PMS5003;34067;39.548;-76.088;2022-08-01T13:10:14;20;20;
31330;PMS5003;34067;39.548;-76.088;2022-08-01T13:12:52;20;20;
31330;PMS5003;34067;39.548;-76.088;2022-08-01T13:15:23;23;22;
31330;PMS5003;34067;39.548;-76.088;2022-08-01T13:17:53;20;19;
31330;PMS5003;34067;39.548;-76.088;2022-08-01T13:20:27;23;22;
31330;PMS5003;34067;39.548;-76.088;2022-08-01T13:23:10;23;22;
31330;PMS5003;34067;39.548;-76.088;2022-08-01T13:25:48;23;23;
31330;PMS5003;34067;39.548;-76.088;2022-08-01T13:28:19;24;23;
31330;PMS5003;34067;39.548;-76.088;2022-08-01T13:30:53;24;22;
31330;PMS5003;34067;39.548;-76.088;2022-08-01T13:33:23;25;23;
31330;PMS5003;34067;39.548;-76.088;2022-08-01T13:35:53;22;21;
31330;PMS5003;34067;39.548;-76.088;2022-08-01T13:38:21;23;23;
31330;PMS5003;34067;39.548;-76.088;2022-08-01T13:40:49;26;26;
31330;PMS5003;34067;39.548;-76.088;2022-08-01T13:43:25;22;22;
31330;PMS5003;34067;39.548;-76.088;2022-08-01T13:45:52;20;20;
31330;PMS5003;34067;39.548;-76.088;2022-08-01T13:48:20;20;20;
31330;PMS5003;34067;39.548;-76.088;2022-08-01T13:50:48;20;20;
31330;PMS5003;34067;39.548;-76.088;2022-08-01T13:53:17;24;23;
31330;PMS5003;34067;39.548;-76.088;2022-08-01T13:55:45;24;22;
31330;PMS5003;34067;39.548;-76.088;2022-08-01T13:58:12;21;21;
31330;PMS5003;34067;39.548;-76.088;2022-08-01T14:00:41;20;20;
31330;PMS5003;34067;39.548;-76.088;2022-08-01T14:03:09;22;21;
31330;PMS5003;34067;39.548;-76.088;2022-08-01T14:05:37;21;20;
31330;PMS5003;34067;39.548;-76.088;2022-08-01T14:08:05;24;21;
31330;PMS5003;34067;39.548;-76.088;2022-08-01T14:10:33;16;16;
31330;PMS5003;34067;39.548;-76.088;2022-08-01T14:13:01;16;16;
31330;PMS5003;34067;39.548;-76.088;2022-08-01T14:15:29;17;17;
31330;PMS5003;34067;39.548;-76.088;2022-08-01T14:17:58;17;16;
31330;PMS5003;34067;39.548;-76.088;2022-08-01T14:20:26;19;18;
31330;PMS5003;34067;39.548;-76.088;2022-08-01T14:22:53;14;14;
31330;PMS5003;34067;39.548;-76.088;2022-08-01T14:25:21;15;14;
31330;PMS5003;34067;39.548;-76.088;2022-08-01T14:27:49;14;14;
31330;PMS5003;34067;39.548;-76.088;2022-08-01T14:30:17;17;15;
31330;PMS5003;34067;39.548;-76.088;2022-08-01T14:32:45;14;14;
31330;PMS5003;34067;39.548;-76.088;2022-08-01T14:35:13;16;15;
31330;PMS5003;34067;39.548;-76.088;2022-08-01T14:37:41;13;12;
31330;PMS5003;34067;39.548;-76.088;2022-08-01T14:40:09;14;14;
31330;PMS5003;34067;39.548;-76.088;2022-08-01T14:42:37;12;12;
31330;PMS5003;34067;39.548;-76.088;2022-08-01T14:45:06;11;11;
31330;PMS5003;34067;39.548;-76.088;2022-08-01T14:47:35;12;12;
31330;PMS5003;34067;39.548;-76.088;2022-08-01T14:50:04;15;15;
31330;PMS5003;34067;39.548;-76.088;2022-08-01T14:52:33;13;13;
31330;PMS5003;34067;39.548;-76.088;2022-08-01T14:55:03;9;9;
31330;PMS5003;34067;39.548;-76.088;2022-08-01T14:57:32;11;11;
31330;PMS5003;34067;39.548;-76.088;2022-08-01T15:00:00;11;10;
31330;PMS5003;34067;39.548;-76.088;2022-08-01T15:02:29;9;9;
31330;PMS5003;34067;39.548;-76.088;2022-08-01T15:04:57;11;10;
31330;PMS5003;34067;39.548;-76.088;2022-08-01T15:07:25;9;9;
31330;PMS5003;34067;39.548;-76.088;2022-08-01T15:09:52;11;9;
31330;PMS5003;34067;39.548;-76.088;2022-08-01T15:12:20;7;7;
31330;PMS5003;34067;39.548;-76.088;2022-08-01T15:14:48;7;7;
31330;PMS5003;34067;39.548;-76.088;2022-08-01T15:17:16;8;8;
31330;PMS5003;34067;39.548;-76.088;2022-08-01T15:19:45;10;10;
31330;PMS5003;34067;39.548;-76.088;2022-08-01T15:22:14;8;8;
31330;PMS5003;34067;39.548;-76.088;2022-08-01T15:24:42;8;8;
31330;PMS5003;34067;39.548;-76.088;2022-08-01T15:27:11;8;8;
31330;PMS5003;34067;39.548;-76.088;2022-08-01T15:29:38;8;8;
31330;PMS5003;34067;39.548;-76.088;2022-08-01T15:32:06;7;6;
31330;PMS5003;34067;39.548;-76.088;2022-08-01T15:34:34;7;7;
31330;PMS5003;34067;39.548;-76.088;2022-08-01T15:37:03;6;6;
31330;PMS5003;34067;39.548;-76.088;2022-08-01T15:39:32;7;7;
31330;PMS5003;34067;39.548;-76.088;2022-08-01T15:42:02;6;6;
31330;PMS5003;34067;39.548;-76.088;2022-08-01T15:44:33;8;8;
31330;PMS5003;34067;39.548;-76.088;2022-08-01T15:47:01;6;6;
31330;PMS5003;34067;39.548;-76.088;2022-08-01T15:49:30;9;9;
31330;PMS5003;34067;39.548;-76.088;2022-08-01T15:51:59;10;9;
31330;PMS5003;34067;39.548;-76.088;2022-08-01T15:54:27;12;11;
31330;PMS5003;34067;39.548;-76.088;2022-08-01T15:56:54;9;9;
31330;PMS5003;34067;39.548;-76.088;2022-08-01T15:59:22;9;9;
31330;PMS5003;34067;39.548;-76.088;2022-08-01T16:01:50;8;8;
31330;PMS5003;34067;39.548;-76.088;2022-08-01T16:04:18;5;5;
31330;PMS5003;34067;39.548;-76.088;2022-08-01T16:06:46;6;6;